createdAt,value
2019-03-22T00:00:51.114Z,22.30
2019-03-22T00:01:50.576Z,22.36
2019-03-22T00:02:50.594Z,22.43
2019-03-22T00:03:50.554Z,22.37
2019-03-22T00:04:50.560Z,22.25
2019-03-22T00:05:50.530Z,22.35
2019-03-22T00:06:51.123Z,22.35
2019-03-22T00:07:50.532Z,22.35
2019-03-22T00:08:50.500Z,22.31
2019-03-22T00:09:50.491Z,22.36
2019-03-22T00:10:50.482Z,22.33
2019-03-22T00:11:50.465Z,22.36
2019-03-22T00:12:50.470Z,22.37
2019-03-22T00:13:50.448Z,22.36
2019-03-22T00:14:50.435Z,22.37
2019-03-22T00:15:50.420Z,22.36
2019-03-22T00:16:50.413Z,22.33
2019-03-22T00:17:50.421Z,22.35
2019-03-22T00:18:50.387Z,22.35
2019-03-22T00:19:50.378Z,22.33
2019-03-22T00:20:51.114Z,22.31
2019-03-22T00:21:50.360Z,22.36
2019-03-22T00:22:50.362Z,22.33
2019-03-22T00:23:50.337Z,22.36
2019-03-22T00:24:50.325Z,22.36
2019-03-22T00:25:50.312Z,22.37
2019-03-22T00:26:50.304Z,22.27
2019-03-22T00:27:50.314Z,22.35
2019-03-22T00:28:50.280Z,22.37
2019-03-22T00:29:51.127Z,22.39
2019-03-22T00:30:50.257Z,22.35
2019-03-22T00:31:50.247Z,22.36
2019-03-22T00:32:50.254Z,22.39
2019-03-22T00:33:50.224Z,22.36
2019-03-22T00:34:50.222Z,22.27
2019-03-22T00:35:50.199Z,22.28
2019-03-22T00:36:50.188Z,22.37
2019-03-22T00:37:50.633Z,22.31
2019-03-22T00:38:50.167Z,22.31
2019-03-22T00:39:50.167Z,22.31
2019-03-22T00:40:51.118Z,22.33
2019-03-22T00:41:50.137Z,22.31
2019-03-22T00:42:50.629Z,22.39
2019-03-22T00:43:50.119Z,22.35
2019-03-22T00:44:50.109Z,22.37
2019-03-22T00:45:50.092Z,22.35
2019-03-22T00:46:50.096Z,22.37
2019-03-22T00:47:50.074Z,22.36
2019-03-22T00:48:50.079Z,22.31
2019-03-22T00:49:50.056Z,22.28
2019-03-22T00:50:50.035Z,22.35
2019-03-22T00:51:50.029Z,22.27
2019-03-22T00:52:50.015Z,22.35
2019-03-22T00:53:50.021Z,22.39
2019-03-22T00:54:50.626Z,22.40
2019-03-22T00:55:50.616Z,22.30
2019-03-22T00:56:49.971Z,22.25
2019-03-22T00:57:49.959Z,22.31
2019-03-22T00:58:50.146Z,22.35
2019-03-22T00:59:49.940Z,22.27
2019-03-22T01:00:52.387Z,22.33
2019-03-22T01:01:50.620Z,22.33
2019-03-22T01:02:49.904Z,22.31
2019-03-22T01:03:49.906Z,22.30
2019-03-22T01:04:49.888Z,22.30
2019-03-22T01:05:49.870Z,22.30
2019-03-22T01:06:49.862Z,22.24
2019-03-22T01:07:50.618Z,22.31
2019-03-22T01:08:49.852Z,22.33
2019-03-22T01:09:49.832Z,22.30
2019-03-22T01:10:49.816Z,22.25
2019-03-22T01:11:49.806Z,22.40
2019-03-22T01:12:49.792Z,22.33
2019-03-22T01:13:50.131Z,22.31
2019-03-22T01:14:49.781Z,22.28
2019-03-22T01:15:50.620Z,22.30
2019-03-22T01:16:50.622Z,22.27
2019-03-22T01:17:49.782Z,22.25
2019-03-22T01:18:49.748Z,22.30
2019-03-22T01:19:49.726Z,22.33
2019-03-22T01:20:49.706Z,22.24
2019-03-22T01:21:49.695Z,22.30
2019-03-22T01:22:49.681Z,22.28
2019-03-22T01:23:49.685Z,22.27
2019-03-22T01:24:49.668Z,22.28
2019-03-22T01:25:49.650Z,22.25
2019-03-22T01:26:49.639Z,22.31
2019-03-22T01:27:50.623Z,22.30
2019-03-22T01:28:49.647Z,22.27
2019-03-22T01:29:49.619Z,22.27
2019-03-22T01:30:49.595Z,22.27
2019-03-22T01:31:49.583Z,22.25
2019-03-22T01:32:50.120Z,22.31
2019-03-22T01:33:49.576Z,22.30
2019-03-22T01:34:49.557Z,22.27
2019-03-22T01:35:49.539Z,22.30
2019-03-22T01:36:49.529Z,22.30
2019-03-22T01:37:50.129Z,22.24
2019-03-22T01:38:49.642Z,22.28
2019-03-22T01:39:49.512Z,22.27
2019-03-22T01:40:49.481Z,22.33
2019-03-22T01:41:49.473Z,22.31
2019-03-22T01:42:49.466Z,22.27
2019-03-22T01:43:49.451Z,22.22
2019-03-22T01:44:49.473Z,22.28
2019-03-22T01:45:50.121Z,22.30
2019-03-22T01:46:49.418Z,22.27
2019-03-22T01:47:49.407Z,22.31
2019-03-22T01:48:50.122Z,22.27
2019-03-22T01:49:49.635Z,22.30
2019-03-22T01:50:49.375Z,22.24
2019-03-22T01:51:49.361Z,22.22
2019-03-22T01:52:49.351Z,22.30
2019-03-22T01:53:49.342Z,22.24
2019-03-22T01:54:49.635Z,22.21
2019-03-22T01:55:49.322Z,22.24
2019-03-22T01:56:50.122Z,22.18
2019-03-22T01:57:53.486Z,22.27
2019-03-22T01:58:49.285Z,22.21
2019-03-22T01:59:49.638Z,22.30
2019-03-22T02:00:49.273Z,22.24
2019-03-22T02:01:49.253Z,22.30
2019-03-22T02:02:49.242Z,22.22
2019-03-22T02:03:49.230Z,22.25
2019-03-22T02:04:49.238Z,22.24
2019-03-22T02:05:50.125Z,22.20
2019-03-22T02:06:50.125Z,22.20
2019-03-22T02:07:49.192Z,22.24
2019-03-22T02:08:49.175Z,22.24
2019-03-22T02:09:49.178Z,22.25
2019-03-22T02:10:49.155Z,22.20
2019-03-22T02:11:49.141Z,22.24
2019-03-22T02:12:49.139Z,22.25
2019-03-22T02:13:49.626Z,22.21
2019-03-22T02:14:49.123Z,22.28
2019-03-22T02:15:49.100Z,22.22
2019-03-22T02:16:49.088Z,22.21
2019-03-22T02:17:49.077Z,22.21
2019-03-22T02:18:49.624Z,22.28
2019-03-22T02:19:49.135Z,22.22
2019-03-22T02:20:49.044Z,22.28
2019-03-22T02:21:49.037Z,22.20
2019-03-22T02:22:49.026Z,22.20
2019-03-22T02:23:52.068Z,22.30
2019-03-22T02:24:49.140Z,22.28
2019-03-22T02:25:48.987Z,22.28
2019-03-22T02:26:48.979Z,22.21
2019-03-22T02:27:48.966Z,22.27
2019-03-22T02:28:48.956Z,22.21
2019-03-22T02:29:49.153Z,22.18
2019-03-22T02:30:48.950Z,22.20
2019-03-22T02:31:48.925Z,22.25
2019-03-22T02:32:48.912Z,22.15
2019-03-22T02:33:48.926Z,22.15
2019-03-22T02:34:48.925Z,22.22
2019-03-22T02:35:49.628Z,22.27
2019-03-22T02:36:48.871Z,22.24
2019-03-22T02:37:48.858Z,22.17
2019-03-22T02:38:48.846Z,22.27
2019-03-22T02:39:48.845Z,22.17
2019-03-22T02:40:48.849Z,22.15
2019-03-22T02:41:48.812Z,22.25
2019-03-22T02:42:48.801Z,22.24
2019-03-22T02:43:48.809Z,22.24
2019-03-22T02:44:49.625Z,22.20
2019-03-22T02:45:48.792Z,22.24
2019-03-22T02:46:48.767Z,22.20
2019-03-22T02:47:49.629Z,22.27
2019-03-22T02:48:48.740Z,22.15
2019-03-22T02:49:48.733Z,22.27
2019-03-22T02:50:49.140Z,22.28
2019-03-22T02:51:48.705Z,22.27
2019-03-22T02:52:49.627Z,22.27
2019-03-22T02:53:49.631Z,22.25
2019-03-22T02:54:48.671Z,22.27
2019-03-22T02:55:49.200Z,22.17
2019-03-22T02:56:48.647Z,22.17
2019-03-22T02:57:49.635Z,22.25
2019-03-22T02:58:49.126Z,22.27
2019-03-22T02:59:49.128Z,22.20
2019-03-22T03:00:48.630Z,22.18
2019-03-22T03:01:48.590Z,22.22
2019-03-22T03:02:48.592Z,22.27
2019-03-22T03:03:48.574Z,22.24
2019-03-22T03:04:49.130Z,22.27
2019-03-22T03:05:48.584Z,22.25
2019-03-22T03:06:48.541Z,22.25
2019-03-22T03:07:48.534Z,22.27
2019-03-22T03:08:48.520Z,22.28
2019-03-22T03:09:49.132Z,22.20
2019-03-22T03:10:48.643Z,22.24
2019-03-22T03:11:48.482Z,22.20
2019-03-22T03:12:48.477Z,22.22
2019-03-22T03:13:48.462Z,22.21
2019-03-22T03:14:48.449Z,22.22
2019-03-22T03:15:48.458Z,22.24
2019-03-22T03:16:48.435Z,22.20
2019-03-22T03:17:49.128Z,22.31
2019-03-22T03:18:48.405Z,22.22
2019-03-22T03:19:48.418Z,22.18
2019-03-22T03:20:48.415Z,22.28
2019-03-22T03:21:49.138Z,22.22
2019-03-22T03:22:48.361Z,22.21
2019-03-22T03:23:48.349Z,22.24
2019-03-22T03:24:48.341Z,22.20
2019-03-22T03:25:48.350Z,22.22
2019-03-22T03:26:48.318Z,22.22
2019-03-22T03:27:48.325Z,22.27
2019-03-22T03:28:48.293Z,22.17
2019-03-22T03:29:48.282Z,22.20
2019-03-22T03:30:48.293Z,22.24
2019-03-22T03:31:48.272Z,22.28
2019-03-22T03:32:48.349Z,22.15
2019-03-22T03:33:48.242Z,22.24
2019-03-22T03:34:49.147Z,22.24
2019-03-22T03:35:48.657Z,22.22
2019-03-22T03:36:48.210Z,22.27
2019-03-22T03:37:48.212Z,22.20
2019-03-22T03:38:49.139Z,22.22
2019-03-22T03:39:49.133Z,22.22
2019-03-22T03:40:48.186Z,22.15
2019-03-22T03:41:48.151Z,22.21
2019-03-22T03:42:49.135Z,22.24
2019-03-22T03:43:48.129Z,22.15
2019-03-22T03:44:48.115Z,22.24
2019-03-22T03:45:48.123Z,22.18
2019-03-22T03:46:48.098Z,22.25
2019-03-22T03:47:48.101Z,22.18
2019-03-22T03:48:48.092Z,22.21
2019-03-22T03:49:48.061Z,22.21
2019-03-22T03:50:48.144Z,22.15
2019-03-22T03:51:48.040Z,22.22
2019-03-22T03:52:48.030Z,22.22
2019-03-22T03:53:48.018Z,22.24
2019-03-22T03:54:48.018Z,22.21
2019-03-22T03:55:48.152Z,22.22
2019-03-22T03:56:47.989Z,22.21
2019-03-22T03:57:47.974Z,22.15
2019-03-22T03:58:52.553Z,22.24
2019-03-22T03:59:48.641Z,22.24
2019-03-22T04:00:47.978Z,22.21
2019-03-22T04:01:48.631Z,22.15
2019-03-22T04:02:47.919Z,22.27
2019-03-22T04:03:47.909Z,22.28
2019-03-22T04:04:47.900Z,22.21
2019-03-22T04:05:48.144Z,22.24
2019-03-22T04:06:47.872Z,22.24
2019-03-22T04:07:47.873Z,22.15
2019-03-22T04:08:47.849Z,22.25
2019-03-22T04:09:47.857Z,22.21
2019-03-22T04:10:47.863Z,22.22
2019-03-22T04:11:47.821Z,22.18
2019-03-22T04:12:48.651Z,22.20
2019-03-22T04:13:47.802Z,22.21
2019-03-22T04:14:47.788Z,22.15
2019-03-22T04:15:47.803Z,22.27
2019-03-22T04:16:48.632Z,22.25
2019-03-22T04:17:47.766Z,22.21
2019-03-22T04:18:47.742Z,22.24
2019-03-22T04:19:47.740Z,22.21
2019-03-22T04:20:47.727Z,22.25
2019-03-22T04:21:47.739Z,22.25
2019-03-22T04:22:47.697Z,22.28
2019-03-22T04:23:47.686Z,22.20
2019-03-22T04:24:47.674Z,22.18
2019-03-22T04:25:47.674Z,22.21
2019-03-22T04:26:47.674Z,22.22
2019-03-22T04:27:47.650Z,22.20
2019-03-22T04:28:47.634Z,22.21
2019-03-22T04:29:48.153Z,22.24
2019-03-22T04:30:47.611Z,22.22
2019-03-22T04:31:47.623Z,22.25
2019-03-22T04:32:47.588Z,22.25
2019-03-22T04:33:47.591Z,22.21
2019-03-22T04:34:48.134Z,22.28
2019-03-22T04:35:48.131Z,22.24
2019-03-22T04:36:47.564Z,22.20
2019-03-22T04:37:47.533Z,22.18
2019-03-22T04:38:47.521Z,22.20
2019-03-22T04:39:47.510Z,22.20
2019-03-22T04:40:47.500Z,22.18
2019-03-22T04:41:47.593Z,22.15
2019-03-22T04:42:47.477Z,22.20
2019-03-22T04:43:47.465Z,22.25
2019-03-22T04:44:47.454Z,22.22
2019-03-22T04:45:48.131Z,22.17
2019-03-22T04:46:47.657Z,22.21
2019-03-22T04:47:48.136Z,22.18
2019-03-22T04:48:47.408Z,22.18
2019-03-22T04:49:47.398Z,22.20
2019-03-22T04:50:48.136Z,22.15
2019-03-22T04:51:47.407Z,22.18
2019-03-22T04:52:47.368Z,22.21
2019-03-22T04:53:47.353Z,22.21
2019-03-22T04:54:47.345Z,22.15
2019-03-22T04:55:47.330Z,22.17
2019-03-22T04:56:47.658Z,22.22
2019-03-22T04:57:47.313Z,22.21
2019-03-22T04:58:47.302Z,22.22
2019-03-22T04:59:47.290Z,22.18
2019-03-22T05:00:47.287Z,22.18
2019-03-22T05:01:47.292Z,22.20
2019-03-22T05:02:48.134Z,22.17
2019-03-22T05:03:48.137Z,22.21
2019-03-22T05:04:47.230Z,22.20
2019-03-22T05:05:47.226Z,22.18
2019-03-22T05:06:47.233Z,22.22
2019-03-22T05:07:48.138Z,22.18
2019-03-22T05:08:47.187Z,22.12
2019-03-22T05:09:47.176Z,22.21
2019-03-22T05:10:47.166Z,22.18
2019-03-22T05:11:47.174Z,22.22
2019-03-22T05:12:48.135Z,22.17
2019-03-22T05:13:47.637Z,22.21
2019-03-22T05:14:47.656Z,22.20
2019-03-22T05:15:47.112Z,22.18
2019-03-22T05:16:47.124Z,22.17
2019-03-22T05:17:47.090Z,22.12
2019-03-22T05:18:47.642Z,22.20
2019-03-22T05:19:47.637Z,22.15
2019-03-22T05:20:47.638Z,22.20
2019-03-22T05:21:47.082Z,22.20
2019-03-22T05:22:47.035Z,22.17
2019-03-22T05:23:47.023Z,22.12
2019-03-22T05:24:47.084Z,22.12
2019-03-22T05:25:47.011Z,22.17
2019-03-22T05:26:47.170Z,22.15
2019-03-22T05:27:46.980Z,22.17
2019-03-22T05:28:46.969Z,22.14
2019-03-22T05:29:46.959Z,22.22
2019-03-22T05:30:47.639Z,22.10
2019-03-22T05:31:46.951Z,22.15
2019-03-22T05:32:46.928Z,22.14
2019-03-22T05:33:46.912Z,22.17
2019-03-22T05:34:46.902Z,22.18
2019-03-22T05:35:47.637Z,22.14
2019-03-22T05:36:47.638Z,22.18
2019-03-22T05:37:46.890Z,22.12
2019-03-22T05:38:46.855Z,22.18
2019-03-22T05:39:46.844Z,22.17
2019-03-22T05:40:46.833Z,22.12
2019-03-22T05:41:46.822Z,22.14
2019-03-22T05:42:46.839Z,22.12
2019-03-22T05:43:47.636Z,22.10
2019-03-22T05:44:46.797Z,22.14
2019-03-22T05:45:46.780Z,22.17
2019-03-22T05:46:48.927Z,22.14
2019-03-22T05:47:46.776Z,22.09
2019-03-22T05:48:47.639Z,22.15
2019-03-22T05:49:46.748Z,22.12
2019-03-22T05:50:46.730Z,22.17
2019-03-22T05:51:47.641Z,22.17
2019-03-22T05:52:46.716Z,22.14
2019-03-22T05:53:46.696Z,22.12
2019-03-22T05:54:46.692Z,22.12
2019-03-22T05:55:46.670Z,22.10
2019-03-22T05:56:46.669Z,22.17
2019-03-22T05:57:46.667Z,22.12
2019-03-22T05:58:46.636Z,22.14
2019-03-22T05:59:46.643Z,22.12
2019-03-22T06:00:47.145Z,22.12
2019-03-22T06:01:46.604Z,22.12
2019-03-22T06:02:46.662Z,22.18
2019-03-22T06:03:46.578Z,22.10
2019-03-22T06:04:46.572Z,22.14
2019-03-22T06:05:47.139Z,22.15
2019-03-22T06:06:46.547Z,22.12
2019-03-22T06:07:46.554Z,22.10
2019-03-22T06:08:46.541Z,22.17
2019-03-22T06:09:46.518Z,22.17
2019-03-22T06:10:46.503Z,22.12
2019-03-22T06:11:47.145Z,22.17
2019-03-22T06:12:46.504Z,22.12
2019-03-22T06:13:47.140Z,22.17
2019-03-22T06:14:46.460Z,22.14
2019-03-22T06:15:46.450Z,22.17
2019-03-22T06:16:46.435Z,22.15
2019-03-22T06:17:51.716Z,22.12
2019-03-22T06:18:46.417Z,22.14
2019-03-22T06:19:46.402Z,22.09
2019-03-22T06:20:46.394Z,22.12
2019-03-22T06:21:46.384Z,22.17
2019-03-22T06:22:46.653Z,22.15
2019-03-22T06:23:46.365Z,22.17
2019-03-22T06:24:46.350Z,22.15
2019-03-22T06:25:46.340Z,22.10
2019-03-22T06:26:46.346Z,22.12
2019-03-22T06:27:46.347Z,22.12
2019-03-22T06:28:46.310Z,22.15
2019-03-22T06:29:54.126Z,22.12
2019-03-22T06:30:46.287Z,22.12
2019-03-22T06:31:46.275Z,22.10
2019-03-22T06:32:46.669Z,22.17
2019-03-22T06:33:46.253Z,22.12
2019-03-22T06:34:46.242Z,22.10
2019-03-22T06:35:46.239Z,22.15
2019-03-22T06:36:48.138Z,22.15
2019-03-22T06:37:46.225Z,22.18
2019-03-22T06:38:46.193Z,22.12
2019-03-22T06:39:47.144Z,22.12
2019-03-22T06:40:47.146Z,22.12
2019-03-22T06:41:47.143Z,22.10
2019-03-22T06:42:46.166Z,22.10
2019-03-22T06:43:46.640Z,22.14
2019-03-22T06:44:46.647Z,22.15
2019-03-22T06:45:46.137Z,22.21
2019-03-22T06:46:46.646Z,22.15
2019-03-22T06:47:46.115Z,22.20
2019-03-22T06:48:46.642Z,22.22
2019-03-22T06:49:46.073Z,22.27
2019-03-22T06:50:46.074Z,22.25
2019-03-22T06:51:46.050Z,22.22
2019-03-22T06:52:46.060Z,22.15
2019-03-22T06:53:46.031Z,22.20
2019-03-22T06:54:46.018Z,22.17
2019-03-22T06:55:46.008Z,22.28
2019-03-22T06:56:46.000Z,22.18
2019-03-22T06:57:46.166Z,22.21
2019-03-22T06:58:46.644Z,22.20
2019-03-22T06:59:45.968Z,22.22
2019-03-22T07:00:45.953Z,22.22
2019-03-22T07:01:45.946Z,22.28
2019-03-22T07:02:46.026Z,22.27
2019-03-22T07:03:45.918Z,22.27
2019-03-22T07:04:45.907Z,22.28
2019-03-22T07:05:45.905Z,22.31
2019-03-22T07:06:45.885Z,22.27
2019-03-22T07:07:45.894Z,22.36
2019-03-22T07:08:45.863Z,22.30
2019-03-22T07:09:45.855Z,22.39
2019-03-22T07:10:45.841Z,22.33
2019-03-22T07:11:45.830Z,22.40
2019-03-22T07:12:46.171Z,22.36
2019-03-22T07:13:45.808Z,22.36
2019-03-22T07:14:46.647Z,22.35
2019-03-22T07:15:45.787Z,22.37
2019-03-22T07:16:46.650Z,22.28
2019-03-22T07:17:45.774Z,22.24
2019-03-22T07:18:46.157Z,22.36
2019-03-22T07:19:45.771Z,22.37
2019-03-22T07:20:45.735Z,22.36
2019-03-22T07:21:45.722Z,22.36
2019-03-22T07:22:45.713Z,22.42
2019-03-22T07:23:45.723Z,22.45
2019-03-22T07:24:46.646Z,22.47
2019-03-22T07:25:45.685Z,22.45
2019-03-22T07:26:45.669Z,22.51
2019-03-22T07:27:45.669Z,22.52
2019-03-22T07:28:45.668Z,22.55
2019-03-22T07:29:45.634Z,22.54
2019-03-22T07:30:45.617Z,22.42
2019-03-22T07:31:45.617Z,22.46
2019-03-22T07:32:45.601Z,22.49
2019-03-22T07:33:45.621Z,22.46
2019-03-22T07:34:45.578Z,22.55
2019-03-22T07:35:45.566Z,22.55
2019-03-22T07:36:47.017Z,22.54
2019-03-22T07:37:45.546Z,22.51
2019-03-22T07:38:45.546Z,22.47
2019-03-22T07:39:45.521Z,22.64
2019-03-22T07:40:45.514Z,22.54
2019-03-22T07:41:45.501Z,22.58
2019-03-22T07:42:45.489Z,22.64
2019-03-22T07:43:45.662Z,22.58
2019-03-22T07:44:46.158Z,22.61
2019-03-22T07:45:45.457Z,22.65
2019-03-22T07:46:46.150Z,22.62
2019-03-22T07:47:45.435Z,22.60
2019-03-22T07:48:45.486Z,22.60
2019-03-22T07:49:46.147Z,22.70
2019-03-22T07:50:45.402Z,22.67
2019-03-22T07:51:46.152Z,22.70
2019-03-22T07:52:45.379Z,22.73
2019-03-22T07:53:45.383Z,22.65
2019-03-22T07:54:45.358Z,22.73
2019-03-22T07:55:45.353Z,22.67
2019-03-22T07:56:45.335Z,22.77
2019-03-22T07:57:46.148Z,22.75
2019-03-22T07:58:45.676Z,22.77
2019-03-22T07:59:45.306Z,22.79
2019-03-22T08:00:45.291Z,22.76
2019-03-22T08:01:45.280Z,22.82
2019-03-22T08:02:45.269Z,22.80
2019-03-22T08:03:45.662Z,22.85
2019-03-22T08:04:46.145Z,22.77
2019-03-22T08:05:50.906Z,22.82
2019-03-22T08:06:45.254Z,22.85
2019-03-22T08:07:46.150Z,22.82
2019-03-22T08:08:46.165Z,22.86
2019-03-22T08:09:45.747Z,22.90
2019-03-22T08:10:46.233Z,22.86
2019-03-22T08:11:45.179Z,22.88
2019-03-22T08:12:45.174Z,22.94
2019-03-22T08:13:45.162Z,22.91
2019-03-22T08:14:45.156Z,22.88
2019-03-22T08:15:45.653Z,22.97
2019-03-22T08:16:45.126Z,22.92
2019-03-22T08:17:45.104Z,22.95
2019-03-22T08:18:45.090Z,22.92
2019-03-22T08:19:45.101Z,22.91
2019-03-22T08:20:45.073Z,23.05
2019-03-22T08:21:45.690Z,23.02
2019-03-22T08:22:45.049Z,23.05
2019-03-22T08:23:45.043Z,23.04
2019-03-22T08:24:45.044Z,23.00
2019-03-22T08:25:45.662Z,23.05
2019-03-22T08:26:45.653Z,23.05
2019-03-22T08:27:45.022Z,23.13
2019-03-22T08:28:45.003Z,23.10
2019-03-22T08:29:45.033Z,23.10
2019-03-22T08:30:45.655Z,23.12
2019-03-22T08:31:44.951Z,23.10
2019-03-22T08:32:44.935Z,23.04
2019-03-22T08:33:44.981Z,23.04
2019-03-22T08:34:47.683Z,23.13
2019-03-22T08:35:44.908Z,23.10
2019-03-22T08:36:44.895Z,23.17
2019-03-22T08:37:52.448Z,23.16
2019-03-22T08:38:44.882Z,23.16
2019-03-22T08:39:44.948Z,23.16
2019-03-22T08:40:45.689Z,23.20
2019-03-22T08:41:44.877Z,23.17
2019-03-22T08:42:45.657Z,23.16
2019-03-22T08:43:44.928Z,23.19
2019-03-22T08:44:44.825Z,23.23
2019-03-22T08:45:44.797Z,23.22
2019-03-22T08:46:45.131Z,23.31
2019-03-22T08:47:45.655Z,23.22
2019-03-22T08:48:44.774Z,23.25
2019-03-22T08:49:45.211Z,23.36
2019-03-22T08:50:44.742Z,23.33
2019-03-22T08:51:44.740Z,23.31
2019-03-22T08:52:44.719Z,23.39
2019-03-22T08:53:54.653Z,23.38
2019-03-22T08:54:44.764Z,23.40
2019-03-22T08:55:45.668Z,23.35
2019-03-22T08:56:44.730Z,23.40
2019-03-22T08:57:44.704Z,23.46
2019-03-22T08:58:44.713Z,23.46
2019-03-22T08:59:44.660Z,23.43
2019-03-22T09:00:56.818Z,23.42
2019-03-22T09:01:44.633Z,23.46
2019-03-22T09:02:44.611Z,23.46
2019-03-22T09:03:44.633Z,23.51
2019-03-22T09:04:44.672Z,23.54
2019-03-22T09:05:44.578Z,23.53
2019-03-22T09:06:44.586Z,23.57
2019-03-22T09:07:44.561Z,23.55
2019-03-22T09:08:44.548Z,23.58
2019-03-22T09:09:44.555Z,23.57
2019-03-22T09:10:44.541Z,23.63
2019-03-22T09:11:45.167Z,23.58
2019-03-22T09:12:44.527Z,23.65
2019-03-22T09:13:44.522Z,23.58
2019-03-22T09:14:44.684Z,23.65
2019-03-22T09:15:44.482Z,23.63
2019-03-22T09:16:44.479Z,23.73
2019-03-22T09:17:44.468Z,23.79
2019-03-22T09:18:44.443Z,23.76
2019-03-22T09:19:45.177Z,23.78
2019-03-22T09:20:45.191Z,23.78
2019-03-22T09:21:44.414Z,23.85
2019-03-22T09:22:45.154Z,23.73
2019-03-22T09:23:44.385Z,23.83
2019-03-22T09:24:44.444Z,23.90
2019-03-22T09:25:44.366Z,23.91
2019-03-22T09:26:47.917Z,23.85
2019-03-22T09:27:44.348Z,23.88
2019-03-22T09:28:44.332Z,23.85
2019-03-22T09:29:47.205Z,23.76
2019-03-22T09:30:44.338Z,23.75
2019-03-22T09:31:44.300Z,23.73
2019-03-22T09:32:44.334Z,23.80
2019-03-22T09:33:45.192Z,23.76
2019-03-22T09:34:44.292Z,23.78
2019-03-22T09:35:44.309Z,23.87
2019-03-22T09:36:44.243Z,23.85
2019-03-22T09:37:44.235Z,23.88
2019-03-22T09:38:44.283Z,23.80
2019-03-22T09:39:44.265Z,23.91
2019-03-22T09:40:44.679Z,23.84
2019-03-22T09:41:44.205Z,23.85
2019-03-22T09:42:44.207Z,23.84
2019-03-22T09:43:44.196Z,23.88
2019-03-22T09:44:45.156Z,23.93
2019-03-22T09:45:44.188Z,23.88
2019-03-22T09:46:44.190Z,23.87
2019-03-22T09:47:44.125Z,23.94
2019-03-22T09:48:44.135Z,23.94
2019-03-22T09:49:44.114Z,23.94
2019-03-22T09:50:44.110Z,23.97
2019-03-22T09:51:44.138Z,23.95
2019-03-22T09:52:44.091Z,23.98
2019-03-22T09:53:44.081Z,24.02
2019-03-22T09:54:44.655Z,24.02
2019-03-22T09:55:44.079Z,24.00
2019-03-22T09:56:47.362Z,23.98
2019-03-22T09:57:44.011Z,24.10
2019-03-22T09:58:44.656Z,24.02
2019-03-22T09:59:43.993Z,24.03
2019-03-22T10:00:44.057Z,24.03
2019-03-22T10:01:43.975Z,23.98
2019-03-22T10:02:43.955Z,24.10
2019-03-22T10:03:43.945Z,24.10
2019-03-22T10:04:44.801Z,24.09
2019-03-22T10:05:43.971Z,24.08
2019-03-22T10:06:43.941Z,23.97
2019-03-22T10:07:43.946Z,24.13
2019-03-22T10:08:43.904Z,24.13
2019-03-22T10:09:43.913Z,24.13
2019-03-22T10:10:44.248Z,24.12
2019-03-22T10:11:43.859Z,24.05
2019-03-22T10:12:43.845Z,24.13
2019-03-22T10:13:44.659Z,24.15
2019-03-22T10:14:43.898Z,24.15
2019-03-22T10:15:43.908Z,24.20
2019-03-22T10:16:43.801Z,24.13
2019-03-22T10:17:43.837Z,24.28
2019-03-22T10:18:44.692Z,24.20
2019-03-22T10:19:43.813Z,24.27
2019-03-22T10:20:43.822Z,24.24
2019-03-22T10:21:44.659Z,24.32
2019-03-22T10:22:43.786Z,24.20
2019-03-22T10:23:43.726Z,24.30
2019-03-22T10:24:43.765Z,24.30
2019-03-22T10:25:44.170Z,24.20
2019-03-22T10:26:44.693Z,24.30
2019-03-22T10:27:43.690Z,24.30
2019-03-22T10:28:43.670Z,24.30
2019-03-22T10:29:43.662Z,24.28
2019-03-22T10:30:43.696Z,24.39
2019-03-22T10:31:43.642Z,24.31
2019-03-22T10:32:43.644Z,24.22
2019-03-22T10:33:43.643Z,24.28
2019-03-22T10:34:43.657Z,24.32
2019-03-22T10:35:43.610Z,24.39
2019-03-22T10:36:43.601Z,24.40
2019-03-22T10:37:43.647Z,24.39
2019-03-22T10:38:43.577Z,24.43
2019-03-22T10:39:43.555Z,24.35
2019-03-22T10:40:43.599Z,24.34
2019-03-22T10:41:43.523Z,24.40
2019-03-22T10:42:44.189Z,24.37
2019-03-22T10:43:43.506Z,24.45
2019-03-22T10:44:43.528Z,24.34
2019-03-22T10:45:43.724Z,24.42
2019-03-22T10:46:43.481Z,24.49
2019-03-22T10:47:43.565Z,24.46
2019-03-22T10:48:43.441Z,24.45
2019-03-22T10:49:43.498Z,24.47
2019-03-22T10:50:43.436Z,24.49
2019-03-22T10:51:56.039Z,24.55
2019-03-22T10:52:43.399Z,24.52
2019-03-22T10:53:43.419Z,24.52
2019-03-22T10:54:43.403Z,24.53
2019-03-22T10:55:43.384Z,24.55
2019-03-22T10:56:43.353Z,24.52
2019-03-22T10:57:43.344Z,24.55
2019-03-22T10:58:43.335Z,24.60
2019-03-22T10:59:44.164Z,24.58
2019-03-22T11:00:43.672Z,24.65
2019-03-22T11:01:57.573Z,24.58
2019-03-22T11:02:43.288Z,24.67
2019-03-22T11:03:43.383Z,24.57
2019-03-22T11:04:44.175Z,24.68
2019-03-22T11:05:43.679Z,24.67
2019-03-22T11:06:43.246Z,24.64
2019-03-22T11:07:44.159Z,24.77
2019-03-22T11:08:43.225Z,24.73
2019-03-22T11:09:43.211Z,24.67
2019-03-22T11:10:43.200Z,24.69
2019-03-22T11:11:43.673Z,24.69
2019-03-22T11:12:43.183Z,24.69
2019-03-22T11:13:44.160Z,24.68
2019-03-22T11:14:43.157Z,24.77
2019-03-22T11:15:48.513Z,24.77
2019-03-22T11:16:43.155Z,24.78
2019-03-22T11:17:43.129Z,24.78
2019-03-22T11:18:43.111Z,24.83
2019-03-22T11:19:43.120Z,24.90
2019-03-22T11:20:45.652Z,24.91
2019-03-22T11:21:43.095Z,24.90
2019-03-22T11:22:43.065Z,24.84
2019-03-22T11:23:43.672Z,24.80
2019-03-22T11:24:43.675Z,24.85
2019-03-22T11:25:43.040Z,24.80
2019-03-22T11:26:43.042Z,24.73
2019-03-22T11:27:43.665Z,24.83
2019-03-22T11:28:43.009Z,24.80
2019-03-22T11:29:42.994Z,24.78
2019-03-22T11:30:42.976Z,24.80
2019-03-22T11:31:43.013Z,24.68
2019-03-22T11:32:42.958Z,24.71
2019-03-22T11:33:42.967Z,24.76
2019-03-22T11:34:43.674Z,24.77
2019-03-22T11:35:42.939Z,24.69
2019-03-22T11:36:42.929Z,24.69
2019-03-22T11:37:43.665Z,24.69
2019-03-22T11:38:42.903Z,24.67
2019-03-22T11:39:42.890Z,24.68
2019-03-22T11:40:42.932Z,24.67
2019-03-22T11:41:42.879Z,24.71
2019-03-22T11:42:42.851Z,24.71
2019-03-22T11:43:42.843Z,24.65
2019-03-22T11:44:42.840Z,24.68
2019-03-22T11:45:42.847Z,24.64
2019-03-22T11:46:42.822Z,24.71
2019-03-22T11:47:42.790Z,24.57
2019-03-22T11:48:42.785Z,24.55
2019-03-22T11:49:42.783Z,24.53
2019-03-22T11:50:42.760Z,24.65
2019-03-22T11:51:43.188Z,24.55
2019-03-22T11:52:42.742Z,24.61
2019-03-22T11:53:42.731Z,24.61
2019-03-22T11:54:42.727Z,24.58
2019-03-22T11:55:42.710Z,24.58
2019-03-22T11:56:43.171Z,24.64
2019-03-22T11:57:42.696Z,24.58
2019-03-22T11:58:42.680Z,24.55
2019-03-22T11:59:42.675Z,24.53
2019-03-22T12:00:42.654Z,24.65
2019-03-22T12:01:42.660Z,24.57
2019-03-22T12:02:43.167Z,24.55
2019-03-22T12:03:43.162Z,24.61
2019-03-22T12:04:42.611Z,24.55
2019-03-22T12:05:42.607Z,24.55
2019-03-22T12:06:42.675Z,24.55
2019-03-22T12:07:43.168Z,24.60
2019-03-22T12:08:43.164Z,24.53
2019-03-22T12:09:42.556Z,24.55
2019-03-22T12:10:42.550Z,24.55
2019-03-22T12:11:42.546Z,24.64
2019-03-22T12:12:43.169Z,24.67
2019-03-22T12:13:42.513Z,24.68
2019-03-22T12:14:42.503Z,24.68
2019-03-22T12:15:42.499Z,24.68
2019-03-22T12:16:42.492Z,24.62
2019-03-22T12:17:43.165Z,24.64
2019-03-22T12:18:42.459Z,24.68
2019-03-22T12:19:42.482Z,24.60
2019-03-22T12:20:43.173Z,24.69
2019-03-22T12:21:42.436Z,24.77
2019-03-22T12:22:42.422Z,24.69
2019-03-22T12:23:42.401Z,24.64
2019-03-22T12:24:43.185Z,24.69
2019-03-22T12:25:43.178Z,24.61
2019-03-22T12:26:42.403Z,24.73
2019-03-22T12:27:42.359Z,24.76
2019-03-22T12:28:42.353Z,24.73
2019-03-22T12:29:42.334Z,24.76
2019-03-22T12:30:42.335Z,24.73
2019-03-22T12:31:42.700Z,24.69
2019-03-22T12:32:43.169Z,24.77
2019-03-22T12:33:42.293Z,24.71
2019-03-22T12:34:42.284Z,24.67
2019-03-22T12:35:42.681Z,24.69
2019-03-22T12:36:42.686Z,24.68
2019-03-22T12:37:43.163Z,24.77
2019-03-22T12:38:43.170Z,24.69
2019-03-22T12:39:43.171Z,24.69
2019-03-22T12:40:42.235Z,24.73
2019-03-22T12:41:42.686Z,24.62
2019-03-22T12:42:42.195Z,24.60
2019-03-22T12:43:42.184Z,24.68
2019-03-22T12:44:42.172Z,24.73
2019-03-22T12:45:42.163Z,24.62
2019-03-22T12:46:42.185Z,24.76
2019-03-22T12:47:42.159Z,24.67
2019-03-22T12:48:42.667Z,24.67
2019-03-22T12:49:42.135Z,24.67
2019-03-22T12:50:42.665Z,24.69
2019-03-22T12:51:42.135Z,24.80
2019-03-22T12:52:42.086Z,24.83